Weather at Brackett Field

Public forecast

Using degrees Fahrenheit for public forecast. Weather courtesy of forecast.io.

Current aviation weather report (METAR) for Brackett Field

Retrieved 2021/01/23 18:47 UTC (46 minutes ago):

KPOC 231847Z VRB04KT 10SM SCT015 OVC028 09/06 A2993

Closest aviation forecast (TAF) to Brackett Field

Closest forecast is Ontario International Airport, 9.3 nm (17.1 km) ESE. Retrieved 2021/01/23 18:46 UTC (47 minutes ago):

TAF KONT 231744Z 2318/2424 VRB06KT P6SM BKN015 BKN040 FM232000 21008KT 4SM -RA BR BKN015 BKN050 FM240200 21004KT P6SM SCT020 BKN035 FM240600 34004KT P6SM SCT025 BKN035 FM242100 23009KT P6SM SCT030 BKN040